Latest Coastal Weather Observations for Montague Island

IDN60701

Issued at 11:02 am EST Saturday 23 September 2023 (issued every 10 minutes, with the page automatically refreshed every 10 minutes)

About coastal observations | Map of coastal stations | Coastal observations for NSW | Marine services | Other Formats
Station Details ID: 069017 Name: MONTAGUE ISLAND LIGHTHOUSE Lat: -36.25 Lon: 150.23 Height: 52.0 m
Data from the previous 72 hours. | See also: Recent months at Montague Island
Date/Time
EST
Wind Sea
Height
m
Swell Vis
km
Cloud Weather Temp
°C
Press
MSL
hPa
Rain since
9am
mm
Dir  Spd
kts
Gust
kts
Height
m
Period
s
Dir
23/11:00am ESE 6 8 - - - - - - - 15.8 1029.6 0.0
23/10:30am SE 9 11 - - - - - - - 15.4 1029.8 0.0
23/10:00am SSE 9 11 - - - - - - - 15.1 1030.1 0.0
23/09:30am SSW 8 11 - - - - - - - 15.1 1030.5 0.0
23/09:00am SSW 9 12 - - - - - - - 14.0 1030.6 0.0
23/08:30am SSW 9 12 - - - - - - - 13.9 1030.6 0.0
23/08:00am SSW 10 13 - - - - - - - 12.9 1030.6 0.0
23/07:30am SSW 9 12 - - - - - - - 12.9 1030.3 0.0
23/07:00am SW 10 13 - - - - - - - 12.3 1030.2 0.0
23/06:30am SW 10 12 - - - - - - - 12.1 1029.9 0.0
23/06:00am SW 10 13 - - - - - - - 11.9 1029.5 0.0
23/05:30am SW 9 11 - - - - - - - 11.8 1029.2 0.0
23/05:00am SSW 9 12 - - - - - - - 12.0 1029.0 0.0
23/04:30am SSW 9 12 - - - - - - - 12.0 1028.9 0.0
23/04:00am SSW 8 11 - - - - - - - 12.2 1028.9 0.0
23/03:30am SW 10 14 - - - - - - - 12.2 1028.9 0.0
23/03:00am SW 10 13 - - - - - - - 12.2 1028.8 0.0
23/02:30am SSW 10 13 - - - - - - - 12.3 1028.8 0.0
23/02:00am SW 10 12 - - - - - - - 12.3 1029.0 0.0
23/01:30am SSW 9 12 - - - - - - - 12.5 1029.2 0.0
23/01:00am SW 10 13 - - - - - - - 12.8 1029.4 0.0
23/12:30am SW 10 13 - - - - - - - 12.9 1029.5 0.0
23/12:00am SW 11 14 - - - - - - - 13.1 1029.6 0.0
 
Date/Time
EST
Wind Sea
Height
m
Swell Vis
km
Cloud Weather Temp
°C
Press
MSL
hPa
Rain since
9am
mm
Dir  Spd
kts
Gust
kts
Height
m
Period
s
Dir
22/11:30pm SW 11 14 - - - - - - - 13.3 1029.8 0.0
22/11:00pm SW 11 13 - - - - - - - 13.7 1030.1 0.0
22/10:30pm SW 7 10 - - - - - - - 13.9 1030.3 0.0
22/10:00pm ESE 4 8 - - - - - - - 14.4 1030.4 0.0
22/09:30pm ESE 6 9 - - - - - - - 14.4 1030.5 0.0
22/09:00pm ESE 7 9 - - - - - - - 14.2 1030.4 0.0
22/08:30pm ESE 6 8 - - - - - - - 14.3 1030.3 0.0
22/08:00pm ESE 6 8 - - - - - - - 14.2 1030.2 0.0
22/07:30pm ESE 10 13 - - - - - - - 14.3 1029.9 0.0
22/07:00pm ESE 10 13 - - - - - - - 14.3 1029.6 0.0
22/06:30pm ESE 9 11 - - - - - - - 14.2 1029.3 0.0
22/06:00pm ESE 10 13 - - - - - - - 14.4 1029.1 0.0
22/05:30pm SE 10 13 - - - - - - - 14.3 1029.0 0.0
22/05:00pm ESE 12 15 - - - - - - - 14.5 1028.8 0.0
22/04:30pm ESE 12 15 - - - - - - - 14.5 1028.6 0.0
22/04:00pm ESE 13 16 - - - - - - - 14.7 1028.2 0.0
22/03:30pm ESE 14 17 - - - - - - - 14.8 1028.1 0.0
22/03:00pm ESE 14 17 - - - - - - - 15.0 1028.1 0.0
22/02:30pm ESE 15 17 - - - - - - - 15.0 1028.0 0.0
22/02:00pm ESE 14 16 - - - - - - - 14.9 1028.0 0.0
22/01:30pm ESE 15 18 - - - - - - - 14.8 1028.1 0.0
22/01:00pm SE 14 17 - - - - - - - 15.0 1028.5 0.0
22/12:30pm SE 13 16 - - - - - - - 14.9 1028.9 0.0
22/12:00pm SE 12 15 - - - - - - - 15.8 1029.2 0.0
22/11:30am S 10 12 - - - - - - - 15.6 1029.5 0.0
22/11:00am SSW 10 14 - - - - - - - 15.9 1029.8 0.0
22/10:30am SSW 12 17 - - - - - - - 15.7 1030.0 0.0
22/10:00am SSW 13 17 - - - - - - - 15.1 1030.2 0.0
22/09:30am SSW 14 19 - - - - - - - 14.6 1030.3 0.0
22/09:00am SW 15 22 - - - - - - - 13.9 1030.3 0.0
22/08:30am SW 14 19 - - - - - - - 14.2 1030.1 0.0
22/08:00am SW 16 19 - - - - - - - 13.3 1030.0 0.0
22/07:30am SW 14 19 - - - - - - - 12.9 1029.8 0.0
22/07:00am SW 15 18 - - - - - - - 12.3 1029.6 0.0
22/06:30am SW 15 19 - - - - - - - 11.8 1029.0 0.0
22/06:00am SW 15 21 - - - - - - - 11.6 1028.6 0.0
22/05:30am SSW 18 22 - - - - - - - 11.7 1028.1 0.0
22/05:00am SW 13 17 - - - - - - - 11.5 1027.9 0.0
22/04:30am SW 18 25 - - - - - - - 12.0 1027.7 0.0
22/04:00am SW 19 25 - - - - - - - 11.8 1027.4 0.0
22/03:30am SW 18 24 - - - - - - - 11.7 1027.3 0.0
22/03:00am SW 15 20 - - - - - - - 11.9 1027.2 0.0
22/02:30am SW 17 23 - - - - - - - 12.0 1027.0 0.0
22/02:00am SW 19 23 - - - - - - - 12.0 1027.2 0.0
22/01:30am SW 15 22 - - - - - - - 12.1 1027.4 0.0
22/01:00am SW 17 21 - - - - - - - 12.3 1027.4 0.0
22/12:30am SW 16 21 - - - - - - - 12.4 1027.4 0.0
22/12:00am SW 17 22 - - - - - - - 12.6 1027.0 0.0
 
Date/Time
EST
Wind Sea
Height
m
Swell Vis
km
Cloud Weather Temp
°C
Press
MSL
hPa
Rain since
9am
mm
Dir  Spd
kts
Gust
kts
Height
m
Period
s
Dir
21/11:30pm SSW 20 25 - - - - - - - 13.0 1026.9 0.0
21/11:00pm SSW 22 28 - - - - - - - 13.1 1026.5 0.0
21/10:30pm SSW 20 25 - - - - - - - 13.3 1026.4 0.0
21/10:00pm S 21 28 - - - - - - - 13.4 1026.2 0.0
21/09:30pm S 26 32 - - - - - - - 13.6 1025.7 0.0
21/09:00pm S 26 31 - - - - - - - 13.8 1025.3 0.0
21/08:30pm S 27 34 - - - - - - - 14.0 1024.8 0.0
21/08:00pm S 28 34 - - - - - - - 14.3 1024.2 0.0
21/07:30pm S 29 36 - - - - - - - 14.7 1023.4 0.0
21/07:00pm S 27 34 - - - - - - - 14.9 1022.6 0.0
21/06:30pm SSE 26 33 - - - - - - - 14.9 1022.1 0.0
21/06:00pm SSE 26 32 - - - - - - - 15.2 1021.4 0.0
21/05:30pm SSE 25 33 - - - - - - - 15.0 1021.0 0.0
21/05:00pm SSE 29 35 - - - - - - - 14.9 1020.2 0.0
21/04:30pm SSE 29 34 - - - - - - - 15.0 1019.6 0.0
21/04:00pm SSE 26 33 - - - - - - - 15.5 1019.2 0.0
21/03:30pm SSE 27 32 - - - - - - - 15.5 1018.9 0.0
21/03:00pm SSE 26 31 - - - - - - - 15.6 1018.4 0.0
21/02:30pm SSE 24 29 - - - - - - - 15.9 1018.1 0.0
21/02:00pm SSE 25 30 - - - - - - - 15.8 1017.8 0.0
21/01:30pm SSE 21 24 - - - - - - - 16.2 1017.6 0.0
21/01:00pm SSE 23 27 - - - - - - - 15.8 1017.0 0.0
21/12:30pm SSE 20 25 - - - - - - - 15.2 1017.4 0.0
21/12:00pm SSE 19 24 - - - - - - - 15.3 1017.6 0.0
21/11:30am SSE 18 22 - - - - - - - 15.3 1017.5 0.0
21/11:00am SSE 16 20 - - - - - - - 15.2 1017.3 0.0
21/10:30am SSE 14 17 - - - - - - - 15.2 1017.2 0.0
21/10:00am SSE 12 16 - - - - - - - 15.2 1017.2 0.0
21/09:30am S 10 13 - - - - - - - 15.1 1017.2 0.0
21/09:00am S 12 15 - - - - - - - 14.5 1016.8 2.2
21/08:30am SSW 12 16 - - - - - - - 13.8 1016.6 2.2
21/08:00am SW 15 20 - - - - - - - 13.2 1016.0 2.2
21/07:30am SW 15 20 - - - - - - - 12.6 1015.5 2.2
21/07:00am SSW 16 21 - - - - - - - 12.5 1014.9 2.2
21/06:30am S 18 23 - - - - - - - 12.6 1014.3 2.2
21/06:00am S 16 20 - - - - - - - 12.5 1013.6 2.2
21/05:30am S 15 20 - - - - - - - 12.2 1013.3 2.2
21/05:00am SSE 15 19 - - - - - - - 12.2 1013.0 2.2
21/04:30am SSE 16 20 - - - - - - - 12.6 1012.5 2.2
21/04:00am S 14 18 - - - - - - - 12.9 1012.2 2.2
21/03:30am SSE 12 15 - - - - - - - 12.9 1012.0 2.2
21/03:00am SSE 11 14 - - - - - - - 13.0 1011.9 2.2
21/02:30am S 8 11 - - - - - - - 12.9 1011.9 2.2
21/02:00am SSE 12 16 - - - - - - - 12.6 1011.7 2.2
21/01:30am S 14 17 - - - - - - - 12.7 1012.2 2.2
21/01:00am S 14 17 - - - - - - - 13.3 1012.2 0.0
21/12:30am SSE 13 18 - - - - - - - 14.0 1012.0 0.0
21/12:00am SSE 13 17 - - - - - - - 14.3 1011.5 0.0
 
Date/Time
EST
Wind Sea
Height
m
Swell Vis
km
Cloud Weather Temp
°C
Press
MSL
hPa
Rain since
9am
mm
Dir  Spd
kts
Gust
kts
Height
m
Period
s
Dir
20/11:30pm SSE 15 18 - - - - - - - 14.5 1011.2 0.0
20/11:00pm S 13 18 - - - - - - - 15.1 1011.1 0.0
20/10:30pm SSE 11 15 - - - - - - - 15.6 1011.6 0.0
20/10:00pm SSE 11 14 - - - - - - - 15.4 1011.8 0.0
20/09:30pm SSE 13 15 - - - - - - - 15.4 1011.6 0.0
20/09:00pm SSE 15 19 - - - - - - - 15.5 1011.4 0.0
20/08:30pm SSE 17 20 - - - - - - - 15.3 1011.3 0.0
20/08:00pm SSE 16 19 - - - - - - - 15.3 1011.0 0.0
20/07:30pm SSE 17 20 - - - - - - - 15.2 1010.8 0.0
20/07:00pm SSE 18 23 - - - - - - - 15.1 1010.5 0.0
20/06:30pm S 24 28 - - - - - - - 15.1 1009.7 0.0
20/06:00pm SSE 24 30 - - - - - - - 15.2 1008.7 0.0
20/05:30pm SSE 25 30 - - - - - - - 15.8 1008.0 0.0
20/05:00pm SSE 27 32 - - - - - - - 15.6 1006.9 0.0
20/04:30pm SSE 29 34 - - - - - - - 15.8 1006.1 0.0
20/04:00pm SSE 29 33 - - - - - - - 16.4 1005.2 0.0
20/03:30pm SSE 31 37 - - - - - - - 16.8 1004.7 0.0
20/03:00pm SSE 31 35 - - - - - - - 17.2 1004.5 0.0
20/02:30pm SSE 30 38 - - - - - - - 18.2 1003.6 0.0
20/02:28pm SSE 28 38 - - - - - - - 18.4 1003.6 0.0
20/02:23pm SSE 22 36 - - - - - - - 19.9 1003.6 0.0
20/02:16pm SSW 13 28 - - - - - - - 24.9 1003.7 0.0
20/02:14pm SW 12 19 - - - - - - - 28.9 1003.5 0.0
20/02:00pm SSW 3 9 - - - - - - - 30.3 1003.0 0.0
20/01:30pm NW 3 7 - - - - - - - 27.7 1002.6 0.0
20/01:00pm N 14 21 - - - - - - - 26.0 1002.5 0.0
20/12:30pm NNE 22 34 - - - - - - - 23.6 1003.1 0.0
20/12:27pm NNE 22 34 - - - - - - - 23.7 1002.7 0.0
20/12:00pm NNE 21 25 - - - - - - - 23.4 1003.4 0.0
20/11:30am N 21 27 - - - - - - - 23.4 1003.6 0.0

Other formats

Comma delimited format used in spreadsheet applications
http://www.bom.gov.au/fwo/IDN60701/IDN60701.94939.axf

JavaScript Object Notation format (JSON) in row-major order
http://www.bom.gov.au/fwo/IDN60701/IDN60701.94939.json

Data quality

Most of these data are generated automatically and are frequently updated. Quality checks on data are not normally performed. It is possible for incorrect values to appear. Refer to information at About Latest Weather Observations and please check the disclaimer before using these data.